Metar Cercanos

 

LEPA - Palma De Mallorc, Spain
Distance from station: ONO 38km
Actualización: Wed, 24-Jul-2024 9:00pm CEST
Despejado
Despejado
 Viento del OSO
Viento: OSO 13 km/h
Temperatura: 28°C
Indice Calor: 30°C
Rocío: 22°C
Humedad: 70%
Barómetro: 1015 hPa
Resumen: Despejado
Visibility: greater than 10 km
2024/07/24 19:00 LEPA 241900Z 24007KT CAVOK 28/22 Q1015 NOSIG
LEMH - Mahon/Menorca Is, Spain
Distance from station: ENE 105km
Actualización: Wed, 24-Jul-2024 9:00pm CEST
Despejado
Despejado
 Viento del E
Viento: E 9 km/h
Temperatura: 26°C
Rocío: 20°C
Humedad: 70%
Barómetro: 1015 hPa
Resumen: Despejado
Visibility: greater than 10 km
2024/07/24 19:00 LEMH 241900Z 08005KT 050V110 CAVOK 26/20 Q1015
 
LEIB - Ibiza/Es Codola, Spain
Distance from station: OSO 165km
Actualización: Wed, 24-Jul-2024 9:00pm CEST
Despejado
Despejado
 Viento del ESE
Viento: ESE 9 km/h
Temperatura: 27°C
Indice Calor: 29°C
Rocío: 21°C
Humedad: 70%
Barómetro: 1014 hPa
Resumen: Despejado
Visibility: greater than 10 km
2024/07/24 19:00 LEIB 241900Z 12005KT 060V150 CAVOK 27/21 Q1014 NOSIG
LEBL - Barcelona Airpor, Spain
Distance from station: NNO 225km
Actualización: Wed, 24-Jul-2024 9:00pm CEST
Despejado
Despejado
 Viento del SSO
Viento: SSO 9 km/h
Temperatura: 26°C
Rocío: 21°C
Humedad: 74%
Barómetro: 1015 hPa
Resumen: Despejado
Visibility: greater than 10 km
2024/07/24 19:00 LEBL 241900Z 21005KT CAVOK 26/21 Q1015 NOSIG
 
LEVC - Valencia (civ/Mi, Spain
Distance from station: NO 188km
Actualización: Wed, 24-Jul-2024 9:00pm CEST
Few Clouds
Few Clouds
 Viento del ENE
Viento: ENE 24 km/h
Temperatura: 28°C
Indice Calor: 30°C
Rocío: 21°C
Humedad: 66%
Barómetro: 1013 hPa
Clouds: Few Clouds
Visibility: 10 km
Cloud details: Few Clouds 914 m
2024/07/24 19:00 LEVC 241900Z 06013KT 030V090 9999 FEW030 28/21 Q1013 NOSIG
LEGE - Gerona/Costa Bra, Spain
Distance from station: N 276km
Actualización: Wed, 24-Jul-2024 9:00pm CEST
Despejado
Despejado
 Viento del S
Viento: S 9 km/h
Temperatura: 27°C
Indice Calor: 29°C
Rocío: 20°C
Humedad: 66%
Barómetro: 1015 hPa
Resumen: Despejado
Visibility: greater than 10 km
2024/07/24 19:00 LEGE 241900Z 17005KT 140V200 CAVOK 27/20 Q1015 NOSIG
 
LEAL - Alicante/El Alte, Spain
Distance from station: OSO 344km
Actualización: Wed, 24-Jul-2024 9:00pm CEST
Despejado
Despejado
 Viento del SSO
Viento: SSO 7 km/h
Temperatura: 29°C
Indice Calor: 29°C
Rocío: 16°C
Humedad: 45%
Barómetro: 1014 hPa
Resumen: Despejado
Visibility: greater than 10 km
2024/07/24 19:00 LEAL 241900Z 21004KT 180V250 CAVOK 29/16 Q1014 NOSIG
LEAM - Almeria Airport, Spain
Distance from station: SSO 56km
Actualización: Wed, 24-Jul-2024 9:00pm CEST
Despejado
Despejado
 Viento del SO
Viento: SO 6 km/h
Temperatura: 27°C
Indice Calor: 30°C
Rocío: 23°C
Humedad: 79%
Barómetro: 1014 hPa
Resumen: Despejado
Visibility: greater than 10 km
2024/07/24 19:00 LEAM 241900Z 23003KT 190V270 CAVOK 27/23 Q1014
 
LEZG - Zaragoza (mil/Ci, Spain
Distance from station: NO 431km
Actualización: Wed, 24-Jul-2024 9:00pm CEST
Despejado
Despejado
 Viento del ONO
Viento: ONO 24 km/h
Temperatura: 35°C
Rocío: 12°C
Humedad: 25%
Barómetro: 1013 hPa
Resumen: Despejado
Visibility: greater than 10 km
2024/07/24 19:00 LEZG 241900Z 30013KT CAVOK 35/12 Q1013 NOSIG
LEMD - Madrid/Barajas, Spain
Distance from station: ONO 234km
Actualización: Wed, 24-Jul-2024 9:00pm CEST
Despejado
Despejado
 Viento del OSO
Viento: OSO 13 km/h
Temperatura: 39°C
Rocío: 9°C
Humedad: 16%
Barómetro: 1014 hPa
Resumen: Despejado
Visibility: greater than 10 km
2024/07/24 19:00 LEMD 241900Z 24007KT 220V300 CAVOK 39/09 Q1014 NOSIG
 
LEGR - Granada Airport, Spain
Distance from station: OSO 62km
Actualización: Wed, 24-Jul-2024 9:00pm CEST
Despejado
Despejado
 Viento del O
Viento: O 15 km/h
Temperatura: 38°C
Rocío: 5°C
Humedad: 13%
Barómetro: 1016 hPa
Resumen: Despejado
Visibility: greater than 10 km
2024/07/24 19:00 LEGR 241900Z 27008KT 240V300 CAVOK 38/05 Q1016
LEMG - Malaga (civ/Mil), Spain
Distance from station: OSO 227km
Actualización: Wed, 24-Jul-2024 9:00pm CEST
Despejado
Despejado
 Viento del SE
Viento: SE 13 km/h
Temperatura: 27°C
Rocío: 12°C
Humedad: 39%
Barómetro: 1014 hPa
Resumen: Despejado
Visibility: greater than 10 km
2024/07/24 19:00 LEMG 241900Z 13007KT 100V160 CAVOK 27/12 Q1014 NOSIG
 
LEZL - Sevilla (civ/Mil, Spain
Distance from station: S 318km
Actualización: Wed, 24-Jul-2024 9:00pm CEST
Despejado
Despejado
 Viento del OSO
Viento: OSO 26 km/h
Temperatura: 38°C
Rocío: 10°C
Humedad: 18%
Barómetro: 1012 hPa
Resumen: Despejado
Visibility: greater than 10 km
2024/07/24 19:00 LEZL 241900Z 24014KT 210V270 CAVOK 38/10 Q1012 NOSIG
LEVT - Vitoria, Spain
Distance from station: NO 226km
Actualización: Wed, 24-Jul-2024 9:00pm CEST
Parcialmente nuboso
Parcialmente nuboso
 Viento del N
Viento: N 19 km/h
Temperatura: 21°C
Rocío: 17°C
Humedad: 78%
Barómetro: 1020 hPa
Clouds: Parcialmente nuboso
Visibility: 10 km
Cloud details: Parcialmente nuboso 549 m
2024/07/24 19:00 LEVT 241900Z 36010KT 320V020 9999 SCT018 21/17 Q1020
 
LEBB - Bilbao/Sondica, Spain
Distance from station: NNO 235km
Actualización: Wed, 24-Jul-2024 9:00pm CEST
Muy nuboso
Muy nuboso
 Viento del NE
Viento: NE 9 km/h
Temperatura: 23°C
Rocío: 19°C
Humedad: 78%
Barómetro: 1020 hPa
Clouds: Muy nuboso
Visibility: 10 km
Cloud details: Muy nuboso 792 m
2024/07/24 19:00 LEBB 241900Z 04005KT 350V100 9999 BKN026 23/19 Q1020 NOSIG
LESO - San Sebastian/Fu, Spain
Distance from station: N 231km
Actualización: Wed, 24-Jul-2024 9:00pm CEST
Cubierto
Cubierto
 Viento del N
Viento: N 9 km/h
Temperatura: 22°C
Rocío: 20°C
Humedad: 88%
Barómetro: 1019 hPa
Clouds: Cubierto
Visibility: 10 km
Cloud details: Cubierto 518 m
2024/07/24 19:00 LESO 241900Z 36005KT 300V090 9999 OVC017 22/20 Q1019
 
LEVD - Valladolid(Mil/C, Spain
Distance from station: ONO 239km
Actualización: Wed, 24-Jul-2024 9:00pm CEST
Despejado
Despejado
 Viento del N
Viento: N 11 km/h
Temperatura: 33°C
Rocío: 9°C
Humedad: 23%
Barómetro: 1017 hPa
Resumen: Despejado
Visibility: greater than 10 km
2024/07/24 19:00 LEVD 241900Z 01006KT CAVOK 33/09 Q1017 NOSIG
LESA - Salamanca (civ/M, Spain
Distance from station: ONO 349km
Actualización: Wed, 24-Jul-2024 9:00pm CEST
Despejado
Despejado
 Viento del N
Viento: N 9 km/h
Temperatura: 32°C
Rocío: 15°C
Humedad: 36%
Barómetro: 1017 hPa
Resumen: Despejado
Visibility: greater than 10 km
2024/07/24 19:00 LESA 241900Z 36005KT 330V030 CAVOK 32/15 Q1017
 
LEXJ - Santander/Paraya, Spain
Distance from station: NNO 247km
Actualización: Wed, 24-Jul-2024 9:00pm CEST
Muy nuboso
Muy nuboso
 Viento del NE
Viento: NE 6 km/h
Temperatura: 21°C
Rocío: 19°C
Humedad: 88%
Barómetro: 1020 hPa
Clouds: Muy nuboso
Visibility: 10 km
Cloud details: Parcialmente nuboso 610 m
Muy nuboso 975 m
2024/07/24 19:00 LEXJ 241900Z 05003KT 9999 SCT020 BKN032 21/19 Q1020
LEAS - Asturias/Aviles, Spain
Distance from station: NO 214km
Actualización: Wed, 24-Jul-2024 9:00pm CEST
Muy nuboso
Muy nuboso
 Viento del E
Viento: E 11 km/h
Temperatura: 21°C
Rocío: 19°C
Humedad: 88%
Barómetro: 1020 hPa
Clouds: Muy nuboso
Visibility: 10 km
Cloud details: Muy nuboso 305 m
2024/07/24 19:00 LEAS 241900Z 09006KT 050V120 9999 BKN010 21/19 Q1020 NOSIG
 
LECO - La Coruna/Alvedr, Spain
Distance from station: ONO 222km
Actualización: Wed, 24-Jul-2024 9:00pm CEST
Few Clouds
Few Clouds
 Viento del N
Viento: N 13 km/h
Temperatura: 22°C
Rocío: 18°C
Humedad: 78%
Barómetro: 1018 hPa
Clouds: Few Clouds
Visibility: 10 km
Cloud details: Few Clouds 762 m
2024/07/24 19:00 LECO 241900Z 35007KT 270V030 9999 FEW025 22/18 Q1018 NOSIG
LEVX - Vigo/Peinador, Spain
Distance from station: O 214km
Actualización: Wed, 24-Jul-2024 9:00pm CEST
Despejado
Despejado
 Viento del NNE
Viento: NNE 9 km/h
Temperatura: 29°C
Indice Calor: 31°C
Rocío: 21°C
Humedad: 62%
Barómetro: 1015 hPa
Resumen: Despejado
Visibility: greater than 10 km
2024/07/24 19:00 LEVX 241900Z 02005KT 350V060 CAVOK 29/21 Q1015 NOSIG